sensor_id;sensor_type;location;lat;lon;timestamp;temperature;humidity
10903;DHT22;5504;47.312;11.060;2023-03-01T00:01:24;3.20;74.10
10903;DHT22;5504;47.312;11.060;2023-03-01T00:03:51;3.30;74.40
10903;DHT22;5504;47.312;11.060;2023-03-01T00:06:17;3.30;74.00
10903;DHT22;5504;47.312;11.060;2023-03-01T00:08:42;3.30;74.40
10903;DHT22;5504;47.312;11.060;2023-03-01T00:13:35;3.10;74.10
10903;DHT22;5504;47.312;11.060;2023-03-01T00:16:06;3.10;73.70
10903;DHT22;5504;47.312;11.060;2023-03-01T00:18:32;3.30;73.90
10903;DHT22;5504;47.312;11.060;2023-03-01T00:20:58;3.30;73.60
10903;DHT22;5504;47.312;11.060;2023-03-01T00:23:25;3.30;74.30
10903;DHT22;5504;47.312;11.060;2023-03-01T00:25:51;3.40;74.00
10903;DHT22;5504;47.312;11.060;2023-03-01T00:28:17;3.40;74.10
10903;DHT22;5504;47.312;11.060;2023-03-01T00:30:43;3.40;74.10
10903;DHT22;5504;47.312;11.060;2023-03-01T00:33:09;3.30;74.70
10903;DHT22;5504;47.312;11.060;2023-03-01T00:35:35;3.40;74.50
10903;DHT22;5504;47.312;11.060;2023-03-01T00:38:02;3.40;74.10
10903;DHT22;5504;47.312;11.060;2023-03-01T00:40:30;3.40;74.00
10903;DHT22;5504;47.312;11.060;2023-03-01T00:42:56;3.30;73.90
10903;DHT22;5504;47.312;11.060;2023-03-01T00:45:23;3.40;73.80
10903;DHT22;5504;47.312;11.060;2023-03-01T00:47:50;3.40;73.70
10903;DHT22;5504;47.312;11.060;2023-03-01T00:50:16;3.30;74.10
10903;DHT22;5504;47.312;11.060;2023-03-01T00:52:42;3.30;74.40
10903;DHT22;5504;47.312;11.060;2023-03-01T00:55:08;3.30;74.30
10903;DHT22;5504;47.312;11.060;2023-03-01T00:57:33;3.30;74.60
10903;DHT22;5504;47.312;11.060;2023-03-01T00:59:59;3.30;74.50
10903;DHT22;5504;47.312;11.060;2023-03-01T01:02:25;3.30;74.70
10903;DHT22;5504;47.312;11.060;2023-03-01T01:04:51;3.30;74.60
10903;DHT22;5504;47.312;11.060;2023-03-01T01:07:18;3.30;74.30
10903;DHT22;5504;47.312;11.060;2023-03-01T01:09:46;3.10;74.40
10903;DHT22;5504;47.312;11.060;2023-03-01T01:12:11;3.00;74.30
10903;DHT22;5504;47.312;11.060;2023-03-01T01:14:37;2.90;74.00
10903;DHT22;5504;47.312;11.060;2023-03-01T01:17:03;2.80;73.80
10903;DHT22;5504;47.312;11.060;2023-03-01T01:19:29;2.70;74.30
10903;DHT22;5504;47.312;11.060;2023-03-01T01:21:55;2.50;74.80
10903;DHT22;5504;47.312;11.060;2023-03-01T01:24:20;2.50;75.50
10903;DHT22;5504;47.312;11.060;2023-03-01T01:26:46;2.30;75.60
10903;DHT22;5504;47.312;11.060;2023-03-01T01:29:13;2.50;75.80
10903;DHT22;5504;47.312;11.060;2023-03-01T01:31:40;2.70;76.00
10903;DHT22;5504;47.312;11.060;2023-03-01T01:34:09;2.80;75.40
10903;DHT22;5504;47.312;11.060;2023-03-01T01:36:37;2.90;75.60
10903;DHT22;5504;47.312;11.060;2023-03-01T01:39:03;3.00;75.20
10903;DHT22;5504;47.312;11.060;2023-03-01T01:41:30;3.00;75.20
10903;DHT22;5504;47.312;11.060;2023-03-01T01:46:40;3.00;74.60
10903;DHT22;5504;47.312;11.060;2023-03-01T01:49:27;3.00;74.40
10903;DHT22;5504;47.312;11.060;2023-03-01T01:52:00;2.70;74.90
10903;DHT22;5504;47.312;11.060;2023-03-01T01:57:26;2.60;75.70
10903;DHT22;5504;47.312;11.060;2023-03-01T01:59:58;2.70;75.70
10903;DHT22;5504;47.312;11.060;2023-03-01T02:02:25;2.80;76.10
10903;DHT22;5504;47.312;11.060;2023-03-01T02:04:58;2.90;75.40
10903;DHT22;5504;47.312;11.060;2023-03-01T02:07:27;3.00;75.10
10903;DHT22;5504;47.312;11.060;2023-03-01T02:09:53;3.00;75.20
10903;DHT22;5504;47.312;11.060;2023-03-01T02:12:21;3.00;75.70
10903;DHT22;5504;47.312;11.060;2023-03-01T02:14:48;3.00;75.90
10903;DHT22;5504;47.312;11.060;2023-03-01T02:17:16;3.00;76.00
10903;DHT22;5504;47.312;11.060;2023-03-01T02:22:31;2.90;76.70
10903;DHT22;5504;47.312;11.060;2023-03-01T02:30:16;2.90;76.60
10903;DHT22;5504;47.312;11.060;2023-03-01T02:32:42;2.80;76.40
10903;DHT22;5504;47.312;11.060;2023-03-01T02:35:12;2.90;76.30
10903;DHT22;5504;47.312;11.060;2023-03-01T02:37:39;3.00;76.40
10903;DHT22;5504;47.312;11.060;2023-03-01T02:40:09;3.00;76.90
10903;DHT22;5504;47.312;11.060;2023-03-01T02:42:52;3.00;77.00
10903;DHT22;5504;47.312;11.060;2023-03-01T02:45:19;3.10;76.30
10903;DHT22;5504;47.312;11.060;2023-03-01T02:47:45;3.00;76.80
10903;DHT22;5504;47.312;11.060;2023-03-01T02:53:21;3.20;75.90
10903;DHT22;5504;47.312;11.060;2023-03-01T02:55:48;3.10;74.60
10903;DHT22;5504;47.312;11.060;2023-03-01T02:58:15;2.70;74.80
10903;DHT22;5504;47.312;11.060;2023-03-01T03:00:42;2.20;76.20
10903;DHT22;5504;47.312;11.060;2023-03-01T03:03:21;2.00;77.30
10903;DHT22;5504;47.312;11.060;2023-03-01T03:05:47;2.10;78.00
10903;DHT22;5504;47.312;11.060;2023-03-01T03:08:14;2.30;78.00
10903;DHT22;5504;47.312;11.060;2023-03-01T03:10:49;2.50;78.00
10903;DHT22;5504;47.312;11.060;2023-03-01T03:13:15;2.60;77.60
10903;DHT22;5504;47.312;11.060;2023-03-01T03:15:42;2.70;77.00
10903;DHT22;5504;47.312;11.060;2023-03-01T03:18:11;2.80;76.40
10903;DHT22;5504;47.312;11.060;2023-03-01T03:20:40;2.80;76.10
10903;DHT22;5504;47.312;11.060;2023-03-01T03:23:06;2.80;75.70
10903;DHT22;5504;47.312;11.060;2023-03-01T03:25:32;2.80;76.00
10903;DHT22;5504;47.312;11.060;2023-03-01T03:27:57;2.80;76.20
10903;DHT22;5504;47.312;11.060;2023-03-01T03:30:26;2.80;76.10
10903;DHT22;5504;47.312;11.060;2023-03-01T03:32:52;2.80;76.20
10903;DHT22;5504;47.312;11.060;2023-03-01T03:35:45;2.70;76.30
10903;DHT22;5504;47.312;11.060;2023-03-01T03:38:13;2.80;76.50
10903;DHT22;5504;47.312;11.060;2023-03-01T03:40:50;2.90;76.50
10903;DHT22;5504;47.312;11.060;2023-03-01T03:43:19;2.90;76.30
10903;DHT22;5504;47.312;11.060;2023-03-01T03:45:46;2.70;76.00
10903;DHT22;5504;47.312;11.060;2023-03-01T03:48:12;2.10;77.30
10903;DHT22;5504;47.312;11.060;2023-03-01T03:50:39;1.90;78.40
10903;DHT22;5504;47.312;11.060;2023-03-01T03:53:08;2.00;78.90
10903;DHT22;5504;47.312;11.060;2023-03-01T03:55:34;2.10;79.00
10903;DHT22;5504;47.312;11.060;2023-03-01T03:58:02;2.20;78.80
10903;DHT22;5504;47.312;11.060;2023-03-01T04:00:37;2.20;78.10
10903;DHT22;5504;47.312;11.060;2023-03-01T04:03:04;2.20;78.00
10903;DHT22;5504;47.312;11.060;2023-03-01T04:05:30;2.30;78.00
10903;DHT22;5504;47.312;11.060;2023-03-01T04:07:57;2.50;78.00
10903;DHT22;5504;47.312;11.060;2023-03-01T04:10:38;2.60;77.80
10903;DHT22;5504;47.312;11.060;2023-03-01T04:13:04;2.50;76.30
10903;DHT22;5504;47.312;11.060;2023-03-01T04:15:31;2.10;76.90
10903;DHT22;5504;47.312;11.060;2023-03-01T04:17:58;2.10;78.00
10903;DHT22;5504;47.312;11.060;2023-03-01T04:20:27;2.10;77.50
10903;DHT22;5504;47.312;11.060;2023-03-01T04:25:24;1.90;79.10
10903;DHT22;5504;47.312;11.060;2023-03-01T04:27:50;2.10;79.10
10903;DHT22;5504;47.312;11.060;2023-03-01T04:30:16;2.40;78.40
10903;DHT22;5504;47.312;11.060;2023-03-01T04:32:42;2.50;78.00
10903;DHT22;5504;47.312;11.060;2023-03-01T04:35:08;2.60;77.40
10903;DHT22;5504;47.312;11.060;2023-03-01T04:37:34;2.70;77.60
10903;DHT22;5504;47.312;11.060;2023-03-01T04:40:01;2.70;77.40
10903;DHT22;5504;47.312;11.060;2023-03-01T04:42:33;2.70;77.80
10903;DHT22;5504;47.312;11.060;2023-03-01T04:44:58;2.90;77.30
10903;DHT22;5504;47.312;11.060;2023-03-01T04:47:24;2.90;77.20
10903;DHT22;5504;47.312;11.060;2023-03-01T04:49:50;2.90;77.30
10903;DHT22;5504;47.312;11.060;2023-03-01T04:52:15;2.90;77.30
10903;DHT22;5504;47.312;11.060;2023-03-01T04:54:41;2.80;77.40
10903;DHT22;5504;47.312;11.060;2023-03-01T04:57:08;2.80;76.60
10903;DHT22;5504;47.312;11.060;2023-03-01T04:59:34;2.80;77.50
10903;DHT22;5504;47.312;11.060;2023-03-01T05:02:01;2.90;77.40
10903;DHT22;5504;47.312;11.060;2023-03-01T05:04:27;2.90;77.10
10903;DHT22;5504;47.312;11.060;2023-03-01T05:06:53;3.00;76.90
10903;DHT22;5504;47.312;11.060;2023-03-01T05:09:19;3.00;76.30
10903;DHT22;5504;47.312;11.060;2023-03-01T05:11:44;3.00;76.00
10903;DHT22;5504;47.312;11.060;2023-03-01T05:14:10;3.00;77.00
10903;DHT22;5504;47.312;11.060;2023-03-01T05:16:36;2.90;76.60
10903;DHT22;5504;47.312;11.060;2023-03-01T05:19:03;2.80;76.40
10903;DHT22;5504;47.312;11.060;2023-03-01T05:21:39;2.80;76.90
10903;DHT22;5504;47.312;11.060;2023-03-01T05:24:25;2.80;77.00
10903;DHT22;5504;47.312;11.060;2023-03-01T05:26:52;2.80;76.90
10903;DHT22;5504;47.312;11.060;2023-03-01T05:29:22;2.70;76.40
10903;DHT22;5504;47.312;11.060;2023-03-01T05:32:02;2.80;76.30
10903;DHT22;5504;47.312;11.060;2023-03-01T05:34:31;2.90;76.10
10903;DHT22;5504;47.312;11.060;2023-03-01T05:36:57;2.90;76.50
10903;DHT22;5504;47.312;11.060;2023-03-01T05:39:24;2.90;76.40
10903;DHT22;5504;47.312;11.060;2023-03-01T05:41:58;3.00;76.40
10903;DHT22;5504;47.312;11.060;2023-03-01T05:44:25;2.70;76.40
10903;DHT22;5504;47.312;11.060;2023-03-01T05:46:51;2.50;76.90
10903;DHT22;5504;47.312;11.060;2023-03-01T05:49:17;2.60;78.30
10903;DHT22;5504;47.312;11.060;2023-03-01T05:51:49;2.60;77.60
10903;DHT22;5504;47.312;11.060;2023-03-01T05:54:15;2.20;76.70
10903;DHT22;5504;47.312;11.060;2023-03-01T05:56:41;2.10;77.60
10903;DHT22;5504;47.312;11.060;2023-03-01T05:59:07;1.70;78.80
10903;DHT22;5504;47.312;11.060;2023-03-01T06:01:34;1.60;79.70
10903;DHT22;5504;47.312;11.060;2023-03-01T06:03:59;1.80;79.80
10903;DHT22;5504;47.312;11.060;2023-03-01T06:06:25;2.00;79.30
10903;DHT22;5504;47.312;11.060;2023-03-01T06:08:52;2.30;78.50
10903;DHT22;5504;47.312;11.060;2023-03-01T06:11:18;2.30;78.00
10903;DHT22;5504;47.312;11.060;2023-03-01T06:13:45;2.40;78.00
10903;DHT22;5504;47.312;11.060;2023-03-01T06:16:11;2.40;77.60
10903;DHT22;5504;47.312;11.060;2023-03-01T06:18:37;2.30;78.30
10903;DHT22;5504;47.312;11.060;2023-03-01T06:21:04;2.20;78.40
10903;DHT22;5504;47.312;11.060;2023-03-01T06:23:30;2.20;78.50
10903;DHT22;5504;47.312;11.060;2023-03-01T06:25:55;2.30;78.60
10903;DHT22;5504;47.312;11.060;2023-03-01T06:28:21;2.50;78.50
10903;DHT22;5504;47.312;11.060;2023-03-01T06:30:47;2.60;78.40
10903;DHT22;5504;47.312;11.060;2023-03-01T06:33:13;2.80;77.90
10903;DHT22;5504;47.312;11.060;2023-03-01T06:35:38;2.90;77.70
10903;DHT22;5504;47.312;11.060;2023-03-01T06:38:04;2.80;77.60
10903;DHT22;5504;47.312;11.060;2023-03-01T06:40:31;2.80;77.60
10903;DHT22;5504;47.312;11.060;2023-03-01T06:42:57;2.80;78.00
10903;DHT22;5504;47.312;11.060;2023-03-01T06:45:24;2.90;78.00
10903;DHT22;5504;47.312;11.060;2023-03-01T06:47:50;3.00;77.30
10903;DHT22;5504;47.312;11.060;2023-03-01T06:50:17;3.00;77.50
10903;DHT22;5504;47.312;11.060;2023-03-01T06:52:43;2.40;76.70
10903;DHT22;5504;47.312;11.060;2023-03-01T06:55:11;2.30;78.50
10903;DHT22;5504;47.312;11.060;2023-03-01T06:57:37;2.50;78.90
10903;DHT22;5504;47.312;11.060;2023-03-01T07:00:04;2.40;78.40
10903;DHT22;5504;47.312;11.060;2023-03-01T07:02:30;2.10;79.00
10903;DHT22;5504;47.312;11.060;2023-03-01T07:04:56;1.90;79.30
10903;DHT22;5504;47.312;11.060;2023-03-01T07:07:21;2.00;80.10
10903;DHT22;5504;47.312;11.060;2023-03-01T07:09:48;2.30;79.80
10903;DHT22;5504;47.312;11.060;2023-03-01T07:12:14;2.50;79.30
10903;DHT22;5504;47.312;11.060;2023-03-01T07:14:40;2.80;78.50
10903;DHT22;5504;47.312;11.060;2023-03-01T07:17:05;3.00;77.80
10903;DHT22;5504;47.312;11.060;2023-03-01T07:19:31;3.00;76.80
10903;DHT22;5504;47.312;11.060;2023-03-01T07:21:57;2.50;76.70
10903;DHT22;5504;47.312;11.060;2023-03-01T07:24:23;2.00;78.20
10903;DHT22;5504;47.312;11.060;2023-03-01T07:26:50;1.90;79.30
10903;DHT22;5504;47.312;11.060;2023-03-01T07:29:16;2.30;78.60
10903;DHT22;5504;47.312;11.060;2023-03-01T07:31:42;2.20;78.10
10903;DHT22;5504;47.312;11.060;2023-03-01T07:34:08;2.00;78.30
10903;DHT22;5504;47.312;11.060;2023-03-01T07:36:33;1.80;78.20
10903;DHT22;5504;47.312;11.060;2023-03-01T07:38:59;2.10;79.00
10903;DHT22;5504;47.312;11.060;2023-03-01T07:41:27;2.50;78.30
10903;DHT22;5504;47.312;11.060;2023-03-01T07:43:53;2.90;77.30
10903;DHT22;5504;47.312;11.060;2023-03-01T07:46:19;3.00;77.10
10903;DHT22;5504;47.312;11.060;2023-03-01T07:48:44;2.90;75.70
10903;DHT22;5504;47.312;11.060;2023-03-01T07:51:10;2.50;76.10
10903;DHT22;5504;47.312;11.060;2023-03-01T07:53:36;2.20;77.40
10903;DHT22;5504;47.312;11.060;2023-03-01T07:58:27;1.80;78.50
10903;DHT22;5504;47.312;11.060;2023-03-01T08:00:53;1.70;79.30
10903;DHT22;5504;47.312;11.060;2023-03-01T08:03:19;1.90;80.50
10903;DHT22;5504;47.312;11.060;2023-03-01T08:05:44;2.10;78.60
10903;DHT22;5504;47.312;11.060;2023-03-01T08:08:10;2.40;79.00
10903;DHT22;5504;47.312;11.060;2023-03-01T08:10:36;2.70;77.20
10903;DHT22;5504;47.312;11.060;2023-03-01T08:13:02;2.30;77.10
10903;DHT22;5504;47.312;11.060;2023-03-01T08:15:28;2.80;77.50
10903;DHT22;5504;47.312;11.060;2023-03-01T08:17:54;3.20;76.50
10903;DHT22;5504;47.312;11.060;2023-03-01T08:20:19;3.50;75.80
10903;DHT22;5504;47.312;11.060;2023-03-01T08:22:45;3.70;74.90
10903;DHT22;5504;47.312;11.060;2023-03-01T08:25:11;3.90;74.80
10903;DHT22;5504;47.312;11.060;2023-03-01T08:27:36;4.00;72.90
10903;DHT22;5504;47.312;11.060;2023-03-01T08:30:02;4.00;71.40
10903;DHT22;5504;47.312;11.060;2023-03-01T08:32:28;4.20;70.90
10903;DHT22;5504;47.312;11.060;2023-03-01T08:34:54;4.10;71.00
10903;DHT22;5504;47.312;11.060;2023-03-01T08:37:19;4.20;70.00
10903;DHT22;5504;47.312;11.060;2023-03-01T08:39:46;3.70;70.20
10903;DHT22;5504;47.312;11.060;2023-03-01T08:42:12;3.70;70.90
10903;DHT22;5504;47.312;11.060;2023-03-01T08:44:37;3.80;71.00
10903;DHT22;5504;47.312;11.060;2023-03-01T08:47:03;4.10;71.20
10903;DHT22;5504;47.312;11.060;2023-03-01T08:49:30;4.30;69.70
10903;DHT22;5504;47.312;11.060;2023-03-01T08:51:57;4.10;68.20
10903;DHT22;5504;47.312;11.060;2023-03-01T08:54:23;3.40;69.30
10903;DHT22;5504;47.312;11.060;2023-03-01T08:56:49;3.80;71.00
10903;DHT22;5504;47.312;11.060;2023-03-01T08:59:16;4.30;69.10
10903;DHT22;5504;47.312;11.060;2023-03-01T09:01:42;4.50;69.40
10903;DHT22;5504;47.312;11.060;2023-03-01T09:04:12;4.90;68.00
10903;DHT22;5504;47.312;11.060;2023-03-01T09:06:38;5.00;67.00
10903;DHT22;5504;47.312;11.060;2023-03-01T09:09:05;5.00;67.60
10903;DHT22;5504;47.312;11.060;2023-03-01T09:11:31;5.20;66.30
10903;DHT22;5504;47.312;11.060;2023-03-01T09:13:57;5.30;65.80
10903;DHT22;5504;47.312;11.060;2023-03-01T09:16:23;5.50;65.00
10903;DHT22;5504;47.312;11.060;2023-03-01T09:18:51;5.60;65.60
10903;DHT22;5504;47.312;11.060;2023-03-01T09:21:18;5.70;65.40
10903;DHT22;5504;47.312;11.060;2023-03-01T09:23:46;5.90;64.50
10903;DHT22;5504;47.312;11.060;2023-03-01T09:26:14;5.10;63.60
10903;DHT22;5504;47.312;11.060;2023-03-01T09:28:42;4.90;65.00
10903;DHT22;5504;47.312;11.060;2023-03-01T09:31:08;5.00;66.70
10903;DHT22;5504;47.312;11.060;2023-03-01T09:33:34;5.50;66.50
10903;DHT22;5504;47.312;11.060;2023-03-01T09:36:02;5.80;64.40
10903;DHT22;5504;47.312;11.060;2023-03-01T09:38:29;5.90;63.80
10903;DHT22;5504;47.312;11.060;2023-03-01T09:40:55;5.50;63.40
10903;DHT22;5504;47.312;11.060;2023-03-01T09:43:50;5.60;66.60
10903;DHT22;5504;47.312;11.060;2023-03-01T09:46:20;6.10;66.40
10903;DHT22;5504;47.312;11.060;2023-03-01T09:49:02;6.80;66.80
10903;DHT22;5504;47.312;11.060;2023-03-01T09:51:32;7.30;63.00
10903;DHT22;5504;47.312;11.060;2023-03-01T09:54:01;8.70;63.20
10903;DHT22;5504;47.312;11.060;2023-03-01T09:56:34;8.90;60.00
10903;DHT22;5504;47.312;11.060;2023-03-01T10:02:24;9.10;59.00
10903;DHT22;5504;47.312;11.060;2023-03-01T10:04:57;9.20;58.30
10903;DHT22;5504;47.312;11.060;2023-03-01T10:07:45;9.30;57.80
10903;DHT22;5504;47.312;11.060;2023-03-01T10:10:37;9.50;56.80
10903;DHT22;5504;47.312;11.060;2023-03-01T10:13:21;8.30;56.70
10903;DHT22;5504;47.312;11.060;2023-03-01T10:15:52;9.20;57.70
10903;DHT22;5504;47.312;11.060;2023-03-01T10:18:23;8.30;58.50
10903;DHT22;5504;47.312;11.060;2023-03-01T10:23:20;11.00;55.00
10903;DHT22;5504;47.312;11.060;2023-03-01T10:31:22;12.00;53.20
10903;DHT22;5504;47.312;11.060;2023-03-01T10:33:53;12.50;52.30
10903;DHT22;5504;47.312;11.060;2023-03-01T10:36:21;12.60;50.20
10903;DHT22;5504;47.312;11.060;2023-03-01T10:41:14;11.20;56.30
10903;DHT22;5504;47.312;11.060;2023-03-01T10:43:50;11.10;51.80
10903;DHT22;5504;47.312;11.060;2023-03-01T10:49:19;10.80;52.10
10903;DHT22;5504;47.312;11.060;2023-03-01T10:51:47;10.10;56.20
10903;DHT22;5504;47.312;11.060;2023-03-01T10:54:26;8.60;56.30
10903;DHT22;5504;47.312;11.060;2023-03-01T10:57:01;9.90;56.30
10903;DHT22;5504;47.312;11.060;2023-03-01T10:59:30;10.60;54.50
10903;DHT22;5504;47.312;11.060;2023-03-01T11:02:28;10.20;53.20
10903;DHT22;5504;47.312;11.060;2023-03-01T11:05:01;10.50;53.60
10903;DHT22;5504;47.312;11.060;2023-03-01T11:07:27;11.00;54.20
10903;DHT22;5504;47.312;11.060;2023-03-01T11:09:53;11.50;52.80
10903;DHT22;5504;47.312;11.060;2023-03-01T11:12:20;12.50;52.50
10903;DHT22;5504;47.312;11.060;2023-03-01T11:15:04;10.80;52.20
10903;DHT22;5504;47.312;11.060;2023-03-01T11:17:31;10.30;56.00
10903;DHT22;5504;47.312;11.060;2023-03-01T11:22:53;11.00;52.90
10903;DHT22;5504;47.312;11.060;2023-03-01T11:25:23;11.20;53.50
10903;DHT22;5504;47.312;11.060;2023-03-01T11:27:49;11.00;53.10
10903;DHT22;5504;47.312;11.060;2023-03-01T11:35:36;9.30;57.40
10903;DHT22;5504;47.312;11.060;2023-03-01T11:40:41;9.60;54.70
10903;DHT22;5504;47.312;11.060;2023-03-01T11:50:48;13.10;52.30
10903;DHT22;5504;47.312;11.060;2023-03-01T11:53:48;11.40;51.90
10903;DHT22;5504;47.312;11.060;2023-03-01T11:59:18;11.90;51.60
10903;DHT22;5504;47.312;11.060;2023-03-01T12:01:59;12.50;53.20
10903;DHT22;5504;47.312;11.060;2023-03-01T12:07:54;12.10;53.80
10903;DHT22;5504;47.312;11.060;2023-03-01T12:30:51;11.70;52.20
10903;DHT22;5504;47.312;11.060;2023-03-01T12:33:36;11.60;53.60
10903;DHT22;5504;47.312;11.060;2023-03-01T12:36:38;10.90;51.50
10903;DHT22;5504;47.312;11.060;2023-03-01T12:45:13;11.80;51.50
10903;DHT22;5504;47.312;11.060;2023-03-01T12:50:20;11.20;50.70
10903;DHT22;5504;47.312;11.060;2023-03-01T12:52:53;11.40;54.10
10903;DHT22;5504;47.312;11.060;2023-03-01T12:55:36;10.00;52.70
10903;DHT22;5504;47.312;11.060;2023-03-01T13:01:08;11.60;52.80
10903;DHT22;5504;47.312;11.060;2023-03-01T13:04:12;10.40;53.80
10903;DHT22;5504;47.312;11.060;2023-03-01T13:15:35;12.40;54.40
10903;DHT22;5504;47.312;11.060;2023-03-01T13:20:55;11.60;52.20
10903;DHT22;5504;47.312;11.060;2023-03-01T13:31:11;10.10;53.90
10903;DHT22;5504;47.312;11.060;2023-03-01T13:33:56;9.70;55.30
10903;DHT22;5504;47.312;11.060;2023-03-01T13:38:57;10.50;54.20
10903;DHT22;5504;47.312;11.060;2023-03-01T13:46:51;9.10;57.30
10903;DHT22;5504;47.312;11.060;2023-03-01T13:50:15;9.50;58.10
10903;DHT22;5504;47.312;11.060;2023-03-01T13:52:38;11.00;57.20
10903;DHT22;5504;47.312;11.060;2023-03-01T13:57:43;10.30;55.60
10903;DHT22;5504;47.312;11.060;2023-03-01T14:05:37;10.70;56.60
10903;DHT22;5504;47.312;11.060;2023-03-01T14:08:04;11.70;56.10
10903;DHT22;5504;47.312;11.060;2023-03-01T14:10:40;12.00;54.10
10903;DHT22;5504;47.312;11.060;2023-03-01T14:15:54;13.00;52.90
10903;DHT22;5504;47.312;11.060;2023-03-01T14:18:53;12.90;51.80
10903;DHT22;5504;47.312;11.060;2023-03-01T14:21:17;12.80;53.20
10903;DHT22;5504;47.312;11.060;2023-03-01T14:23:43;12.10;52.70
10903;DHT22;5504;47.312;11.060;2023-03-01T14:26:09;12.20;54.70
10903;DHT22;5504;47.312;11.060;2023-03-01T14:28:38;12.40;53.80
10903;DHT22;5504;47.312;11.060;2023-03-01T14:31:37;12.30;52.70
10903;DHT22;5504;47.312;11.060;2023-03-01T14:34:03;12.10;54.20
10903;DHT22;5504;47.312;11.060;2023-03-01T14:36:32;12.50;53.60
10903;DHT22;5504;47.312;11.060;2023-03-01T14:38:59;12.40;53.00
10903;DHT22;5504;47.312;11.060;2023-03-01T14:41:32;12.00;54.30
10903;DHT22;5504;47.312;11.060;2023-03-01T14:44:02;11.90;54.30
10903;DHT22;5504;47.312;11.060;2023-03-01T14:46:41;11.90;54.90
10903;DHT22;5504;47.312;11.060;2023-03-01T14:49:15;10.50;55.00
10903;DHT22;5504;47.312;11.060;2023-03-01T14:51:46;10.20;57.00
10903;DHT22;5504;47.312;11.060;2023-03-01T14:54:47;9.60;57.60
10903;DHT22;5504;47.312;11.060;2023-03-01T14:57:24;10.40;57.80
10903;DHT22;5504;47.312;11.060;2023-03-01T14:59:52;10.80;56.80
10903;DHT22;5504;47.312;11.060;2023-03-01T15:02:22;11.40;56.30
10903;DHT22;5504;47.312;11.060;2023-03-01T15:04:51;12.00;55.80
10903;DHT22;5504;47.312;11.060;2023-03-01T15:07:18;12.20;54.80
10903;DHT22;5504;47.312;11.060;2023-03-01T15:09:45;12.20;54.30
10903;DHT22;5504;47.312;11.060;2023-03-01T15:12:36;12.10;53.70
10903;DHT22;5504;47.312;11.060;2023-03-01T15:17:56;11.40;55.90
10903;DHT22;5504;47.312;11.060;2023-03-01T15:20:24;12.00;55.10
10903;DHT22;5504;47.312;11.060;2023-03-01T15:22:52;12.10;55.20
10903;DHT22;5504;47.312;11.060;2023-03-01T15:25:20;11.70;54.50
10903;DHT22;5504;47.312;11.060;2023-03-01T15:27:48;11.20;54.30
10903;DHT22;5504;47.312;11.060;2023-03-01T15:30:32;11.30;55.50
10903;DHT22;5504;47.312;11.060;2023-03-01T15:35:53;11.80;55.50
10903;DHT22;5504;47.312;11.060;2023-03-01T15:38:30;10.80;55.20
10903;DHT22;5504;47.312;11.060;2023-03-01T15:40:58;11.00;56.50
10903;DHT22;5504;47.312;11.060;2023-03-01T15:46:03;11.40;56.00
10903;DHT22;5504;47.312;11.060;2023-03-01T15:48:29;11.40;55.50
10903;DHT22;5504;47.312;11.060;2023-03-01T15:50:58;11.20;55.80
10903;DHT22;5504;47.312;11.060;2023-03-01T15:53:24;10.90;55.60
10903;DHT22;5504;47.312;11.060;2023-03-01T15:55:52;11.00;56.30
10903;DHT22;5504;47.312;11.060;2023-03-01T15:58:22;11.10;56.50
10903;DHT22;5504;47.312;11.060;2023-03-01T16:00:49;11.00;55.80
10903;DHT22;5504;47.312;11.060;2023-03-01T16:03:17;10.90;55.80
10903;DHT22;5504;47.312;11.060;2023-03-01T16:05:47;10.90;55.90
10903;DHT22;5504;47.312;11.060;2023-03-01T16:08:14;10.40;56.60
10903;DHT22;5504;47.312;11.060;2023-03-01T16:10:41;10.40;57.10
10903;DHT22;5504;47.312;11.060;2023-03-01T16:13:12;10.30;57.70
10903;DHT22;5504;47.312;11.060;2023-03-01T16:15:38;10.30;57.40
10903;DHT22;5504;47.312;11.060;2023-03-01T16:18:05;10.40;57.30
10903;DHT22;5504;47.312;11.060;2023-03-01T16:20:32;10.20;57.30
10903;DHT22;5504;47.312;11.060;2023-03-01T16:23:03;10.10;57.40
10903;DHT22;5504;47.312;11.060;2023-03-01T16:25:29;9.80;58.00
10903;DHT22;5504;47.312;11.060;2023-03-01T16:27:55;9.70;58.20
10903;DHT22;5504;47.312;11.060;2023-03-01T16:30:22;9.60;58.80
10903;DHT22;5504;47.312;11.060;2023-03-01T16:32:49;9.50;59.00
10903;DHT22;5504;47.312;11.060;2023-03-01T16:35:17;9.50;59.20
10903;DHT22;5504;47.312;11.060;2023-03-01T16:37:43;9.40;59.30
10903;DHT22;5504;47.312;11.060;2023-03-01T16:40:19;9.40;59.60
10903;DHT22;5504;47.312;11.060;2023-03-01T16:42:47;9.20;60.10
10903;DHT22;5504;47.312;11.060;2023-03-01T16:45:12;9.00;60.10
10903;DHT22;5504;47.312;11.060;2023-03-01T16:47:38;9.00;60.20
10903;DHT22;5504;47.312;11.060;2023-03-01T16:50:04;9.00;60.30
10903;DHT22;5504;47.312;11.060;2023-03-01T16:52:30;8.80;60.40
10903;DHT22;5504;47.312;11.060;2023-03-01T16:54:56;8.70;60.40
10903;DHT22;5504;47.312;11.060;2023-03-01T16:57:22;8.70;60.20
10903;DHT22;5504;47.312;11.060;2023-03-01T16:59:51;8.50;60.20
10903;DHT22;5504;47.312;11.060;2023-03-01T17:02:19;8.50;60.50
10903;DHT22;5504;47.312;11.060;2023-03-01T17:04:50;8.40;61.00
10903;DHT22;5504;47.312;11.060;2023-03-01T17:07:16;8.10;61.50
10903;DHT22;5504;47.312;11.060;2023-03-01T17:09:42;8.00;61.90
10903;DHT22;5504;47.312;11.060;2023-03-01T17:12:07;7.80;62.10
10903;DHT22;5504;47.312;11.060;2023-03-01T17:14:34;7.80;62.70
10903;DHT22;5504;47.312;11.060;2023-03-01T17:16:59;7.90;63.10
10903;DHT22;5504;47.312;11.060;2023-03-01T17:19:27;7.70;63.30
10903;DHT22;5504;47.312;11.060;2023-03-01T17:21:54;7.50;63.80
10903;DHT22;5504;47.312;11.060;2023-03-01T17:24:19;7.40;64.20
10903;DHT22;5504;47.312;11.060;2023-03-01T17:26:45;7.20;64.40
10903;DHT22;5504;47.312;11.060;2023-03-01T17:29:11;7.10;65.40
10903;DHT22;5504;47.312;11.060;2023-03-01T17:31:38;7.00;65.60
10903;DHT22;5504;47.312;11.060;2023-03-01T17:34:04;7.00;65.70
10903;DHT22;5504;47.312;11.060;2023-03-01T17:36:29;6.80;66.20
10903;DHT22;5504;47.312;11.060;2023-03-01T17:38:55;6.60;66.70
10903;DHT22;5504;47.312;11.060;2023-03-01T17:41:21;6.50;67.50
10903;DHT22;5504;47.312;11.060;2023-03-01T17:43:49;6.60;67.40
10903;DHT22;5504;47.312;11.060;2023-03-01T17:46:15;6.60;67.30
10903;DHT22;5504;47.312;11.060;2023-03-01T17:48:41;6.50;67.90
10903;DHT22;5504;47.312;11.060;2023-03-01T17:51:08;6.10;68.50
10903;DHT22;5504;47.312;11.060;2023-03-01T17:53:34;6.30;68.00
10903;DHT22;5504;47.312;11.060;2023-03-01T17:56:02;6.20;68.20
10903;DHT22;5504;47.312;11.060;2023-03-01T17:58:29;6.10;69.10
10903;DHT22;5504;47.312;11.060;2023-03-01T18:00:54;6.00;68.80
10903;DHT22;5504;47.312;11.060;2023-03-01T18:03:20;5.80;68.90
10903;DHT22;5504;47.312;11.060;2023-03-01T18:05:46;5.70;69.80
10903;DHT22;5504;47.312;11.060;2023-03-01T18:08:13;5.60;69.70
10903;DHT22;5504;47.312;11.060;2023-03-01T18:10:39;5.60;70.10
10903;DHT22;5504;47.312;11.060;2023-03-01T18:13:05;5.40;70.20
10903;DHT22;5504;47.312;11.060;2023-03-01T18:15:32;5.40;70.60
10903;DHT22;5504;47.312;11.060;2023-03-01T18:17:57;5.40;70.50